logo
Rechercher aéroport 
image banner adimage banner adimage banner ad
image banner ad

NGFU - Funafuti International

Situé à Fongafale, Tuvalu

ICAO - NGFU, IATA - FUN

Données fournies par Airmate  

Information générale

Coordonnées: S8°31'28" E179°11'44"
Élévation : 9 feet MSL.
 
Voir autres Aéroports à Funafuti

Données opérationnelles

Special qualification required
Heure actuelle UTC:
Heure actuelle locale:
Météo
METAR: NGFU 270311Z 35006KT 9999 TSRA FEW016CB FEW018TCU OVC100 27/26 Q1009 RERA
TAF: TAF NGFU 262314Z 2700/2724 09008KT 9999 -SHRA SCT018 BKN100 PROB40 TEMPO 2700/2706 3000 TSRA BKN015 FEW016CB PROB30 TEMPO 2712/2724 5000 TSRA FEW016CB
Voir NOTAMs / SUP AIP / TFR affectant cet aéroport [VIEW]
Fréquences de communication: [VIEW]

Pistes:

Identifiant RWYQFULongueur (ft)Largeur (ft)SurfaceLDA (ft)
0343°503998UNK
21223°503998UNK

Coordonnées de l'aéroport

Adresse: Fongafale Tuvalu

Vue satellite de NGFU